Tipton, Pennsylvania
Current Conditions -  °F | °C
As of 1:53 AM on Tuesday 21 Oct 2014 (Local Time) from KAOO Reporting Station
Overcast Overcast  
Wind Chill: 50°   Ceiling: 4300
Heat Index: 50°   Visibility: 10mi
Dew Point: 43°   Wind: 6mph
Humidity: 77%   Direction: 200°SSW
Pressure: 29.87"   Gusts: NA
Location:  40.64°N, 78.3°W
Report Text: KAOO 210553Z AUTO 20005KT 10SM BKN043 OVC049 10/06 A2987 RMK AO2 SLP116 60000 T01000061 10106 20089 58014
Loading
Personal Weather Stations






























Interactive Weather Map
Tropical Storm Tracking
New forecast layout! Learn more

10-Day Weather Forecast

Advertisements
Track Severe Weather on mobile